sensor_id;sensor_type;location;lat;lon;timestamp;pressure;altitude;pressure_sealevel;temperature;humidity
19624;BME280;9959;49.798;9.928;2024-02-16T00:01:50;99528.09;;;8.62;100.00
19624;BME280;9959;49.798;9.928;2024-02-16T00:04:17;99527.09;;;8.63;100.00
19624;BME280;9959;49.798;9.928;2024-02-16T00:06:44;99532.44;;;8.63;100.00
19624;BME280;9959;49.798;9.928;2024-02-16T00:09:11;99537.22;;;8.67;100.00
19624;BME280;9959;49.798;9.928;2024-02-16T00:11:39;99542.44;;;8.89;100.00
19624;BME280;9959;49.798;9.928;2024-02-16T00:14:09;99547.81;;;8.95;100.00
19624;BME280;9959;49.798;9.928;2024-02-16T00:16:36;99546.13;;;8.81;100.00
19624;BME280;9959;49.798;9.928;2024-02-16T00:19:03;99546.53;;;8.78;100.00
19624;BME280;9959;49.798;9.928;2024-02-16T00:21:30;99545.69;;;8.64;100.00
19624;BME280;9959;49.798;9.928;2024-02-16T00:23:57;99534.72;;;8.59;100.00
19624;BME280;9959;49.798;9.928;2024-02-16T00:26:24;99541.59;;;8.75;100.00
19624;BME280;9959;49.798;9.928;2024-02-16T00:28:51;99548.38;;;8.71;100.00
19624;BME280;9959;49.798;9.928;2024-02-16T00:31:18;99542.00;;;8.72;100.00
19624;BME280;9959;49.798;9.928;2024-02-16T00:33:46;99534.09;;;8.64;100.00
19624;BME280;9959;49.798;9.928;2024-02-16T00:36:13;99536.59;;;8.65;100.00
19624;BME280;9959;49.798;9.928;2024-02-16T00:38:41;99534.53;;;8.67;100.00
19624;BME280;9959;49.798;9.928;2024-02-16T00:41:07;99538.06;;;8.68;100.00
19624;BME280;9959;49.798;9.928;2024-02-16T00:43:34;99524.22;;;8.71;100.00
19624;BME280;9959;49.798;9.928;2024-02-16T00:46:01;99520.69;;;8.77;100.00
19624;BME280;9959;49.798;9.928;2024-02-16T00:48:28;99535.56;;;8.66;100.00
19624;BME280;9959;49.798;9.928;2024-02-16T00:50:55;99539.06;;;8.67;100.00
19624;BME280;9959;49.798;9.928;2024-02-16T00:53:22;99526.88;;;8.64;100.00
19624;BME280;9959;49.798;9.928;2024-02-16T00:55:49;99536.63;;;8.72;100.00
19624;BME280;9959;49.798;9.928;2024-02-16T00:58:15;99544.06;;;8.83;100.00
19624;BME280;9959;49.798;9.928;2024-02-16T01:00:43;99530.72;;;8.48;100.00
19624;BME280;9959;49.798;9.928;2024-02-16T01:03:10;99526.63;;;8.53;100.00
19624;BME280;9959;49.798;9.928;2024-02-16T01:05:39;99523.59;;;8.69;100.00
19624;BME280;9959;49.798;9.928;2024-02-16T01:08:07;99531.50;;;8.90;100.00
19624;BME280;9959;49.798;9.928;2024-02-16T01:10:34;99525.09;;;8.98;100.00
19624;BME280;9959;49.798;9.928;2024-02-16T01:13:01;99522.59;;;9.03;100.00
19624;BME280;9959;49.798;9.928;2024-02-16T01:15:30;99528.00;;;8.96;100.00
19624;BME280;9959;49.798;9.928;2024-02-16T01:17:57;99530.47;;;8.91;100.00
19624;BME280;9959;49.798;9.928;2024-02-16T01:20:28;99530.41;;;8.78;100.00
19624;BME280;9959;49.798;9.928;2024-02-16T01:22:57;99536.63;;;8.72;100.00
19624;BME280;9959;49.798;9.928;2024-02-16T01:25:24;99528.56;;;8.72;100.00
19624;BME280;9959;49.798;9.928;2024-02-16T01:27:51;99528.34;;;8.67;100.00
19624;BME280;9959;49.798;9.928;2024-02-16T01:30:18;99542.00;;;8.72;100.00
19624;BME280;9959;49.798;9.928;2024-02-16T01:32:47;99545.81;;;8.49;100.00
19624;BME280;9959;49.798;9.928;2024-02-16T01:35:14;99537.41;;;8.59;100.00
19624;BME280;9959;49.798;9.928;2024-02-16T01:37:42;99523.75;;;8.47;100.00
19624;BME280;9959;49.798;9.928;2024-02-16T01:40:10;99534.34;;;8.28;100.00
19624;BME280;9959;49.798;9.928;2024-02-16T01:42:44;99528.94;;;8.14;100.00
19624;BME280;9959;49.798;9.928;2024-02-16T01:45:11;99526.88;;;8.17;100.00
19624;BME280;9959;49.798;9.928;2024-02-16T01:47:43;99524.38;;;8.15;100.00
19624;BME280;9959;49.798;9.928;2024-02-16T01:50:11;99526.34;;;8.34;100.00
19624;BME280;9959;49.798;9.928;2024-02-16T01:52:38;99522.84;;;8.34;100.00
19624;BME280;9959;49.798;9.928;2024-02-16T01:55:05;99528.25;;;8.40;100.00
19624;BME280;9959;49.798;9.928;2024-02-16T01:57:45;99520.00;;;8.48;100.00
19624;BME280;9959;49.798;9.928;2024-02-16T02:00:13;99523.28;;;8.37;100.00
19624;BME280;9959;49.798;9.928;2024-02-16T02:02:45;99522.03;;;8.33;100.00
19624;BME280;9959;49.798;9.928;2024-02-16T02:05:13;99520.41;;;8.39;100.00
19624;BME280;9959;49.798;9.928;2024-02-16T02:07:42;99510.50;;;8.39;100.00
19624;BME280;9959;49.798;9.928;2024-02-16T02:10:10;99519.97;;;8.35;100.00
19624;BME280;9959;49.798;9.928;2024-02-16T02:12:40;99520.59;;;8.37;100.00
19624;BME280;9959;49.798;9.928;2024-02-16T02:15:09;99518.03;;;8.29;100.00
19624;BME280;9959;49.798;9.928;2024-02-16T02:17:36;99515.00;;;8.32;100.00
19624;BME280;9959;49.798;9.928;2024-02-16T02:20:03;99510.72;;;8.44;100.00
19624;BME280;9959;49.798;9.928;2024-02-16T02:22:31;99510.81;;;8.30;100.00
19624;BME280;9959;49.798;9.928;2024-02-16T02:24:57;99511.81;;;8.22;100.00
19624;BME280;9959;49.798;9.928;2024-02-16T02:27:24;99494.69;;;8.23;100.00
19624;BME280;9959;49.798;9.928;2024-02-16T02:29:51;99499.66;;;8.20;100.00
19624;BME280;9959;49.798;9.928;2024-02-16T02:32:18;99504.63;;;8.29;100.00
19624;BME280;9959;49.798;9.928;2024-02-16T02:34:46;99507.09;;;8.31;100.00
19624;BME280;9959;49.798;9.928;2024-02-16T02:37:13;99493.56;;;8.39;100.00
19624;BME280;9959;49.798;9.928;2024-02-16T02:39:39;99491.81;;;8.25;100.00
19624;BME280;9959;49.798;9.928;2024-02-16T02:42:06;99502.19;;;8.34;100.00
19624;BME280;9959;49.798;9.928;2024-02-16T02:44:35;99493.75;;;8.37;100.00
19624;BME280;9959;49.798;9.928;2024-02-16T02:47:02;99481.50;;;8.28;100.00
19624;BME280;9959;49.798;9.928;2024-02-16T02:49:29;99490.91;;;8.45;100.00
19624;BME280;9959;49.798;9.928;2024-02-16T02:51:56;99492.72;;;8.38;100.00
19624;BME280;9959;49.798;9.928;2024-02-16T02:54:22;99503.06;;;8.41;100.00
19624;BME280;9959;49.798;9.928;2024-02-16T02:56:49;99494.16;;;8.34;100.00
19624;BME280;9959;49.798;9.928;2024-02-16T02:59:16;99498.69;;;8.34;100.00
19624;BME280;9959;49.798;9.928;2024-02-16T03:01:43;99496.34;;;8.24;100.00
19624;BME280;9959;49.798;9.928;2024-02-16T03:04:11;99496.31;;;8.11;100.00
19624;BME280;9959;49.798;9.928;2024-02-16T03:06:38;99493.41;;;8.12;100.00
19624;BME280;9959;49.798;9.928;2024-02-16T03:09:05;99480.19;;;8.11;100.00
19624;BME280;9959;49.798;9.928;2024-02-16T03:11:33;99468.00;;;8.08;100.00
19624;BME280;9959;49.798;9.928;2024-02-16T03:14:00;99464.13;;;8.24;100.00
19624;BME280;9959;49.798;9.928;2024-02-16T03:16:27;99479.81;;;8.14;100.00
19624;BME280;9959;49.798;9.928;2024-02-16T03:18:55;99464.47;;;8.01;100.00
19624;BME280;9959;49.798;9.928;2024-02-16T03:21:22;99478.31;;;8.05;100.00
19624;BME280;9959;49.798;9.928;2024-02-16T03:23:49;99470.34;;;8.18;100.00
19624;BME280;9959;49.798;9.928;2024-02-16T03:26:17;99475.91;;;8.17;100.00
19624;BME280;9959;49.798;9.928;2024-02-16T03:28:45;99473.09;;;7.97;100.00
19624;BME280;9959;49.798;9.928;2024-02-16T03:31:19;99471.06;;;7.99;100.00
19624;BME280;9959;49.798;9.928;2024-02-16T03:33:47;99486.66;;;7.82;100.00
19624;BME280;9959;49.798;9.928;2024-02-16T03:36:15;99492.16;;;8.08;100.00
19624;BME280;9959;49.798;9.928;2024-02-16T03:38:44;99487.38;;;8.04;100.00
19624;BME280;9959;49.798;9.928;2024-02-16T03:41:14;99487.94;;;7.86;100.00
19624;BME280;9959;49.798;9.928;2024-02-16T03:43:42;99493.34;;;7.99;100.00
19624;BME280;9959;49.798;9.928;2024-02-16T03:46:10;99489.81;;;7.99;100.00
19624;BME280;9959;49.798;9.928;2024-02-16T03:48:38;99491.38;;;8.21;100.00
19624;BME280;9959;49.798;9.928;2024-02-16T03:51:05;99488.81;;;8.00;100.00
19624;BME280;9959;49.798;9.928;2024-02-16T03:53:32;99482.81;;;7.98;100.00
19624;BME280;9959;49.798;9.928;2024-02-16T03:55:59;99488.84;;;8.06;100.00
19624;BME280;9959;49.798;9.928;2024-02-16T03:58:26;99496.47;;;8.03;100.00
19624;BME280;9959;49.798;9.928;2024-02-16T04:00:53;99498.75;;;8.06;100.00
19624;BME280;9959;49.798;9.928;2024-02-16T04:03:20;99494.66;;;8.10;100.00
19624;BME280;9959;49.798;9.928;2024-02-16T04:05:47;99507.34;;;7.95;100.00
19624;BME280;9959;49.798;9.928;2024-02-16T04:08:15;99514.38;;;7.96;100.00
19624;BME280;9959;49.798;9.928;2024-02-16T04:10:41;99507.81;;;8.05;100.00
19624;BME280;9959;49.798;9.928;2024-02-16T04:13:08;99511.06;;;7.94;100.00
19624;BME280;9959;49.798;9.928;2024-02-16T04:15:35;99516.66;;;7.99;100.00
19624;BME280;9959;49.798;9.928;2024-02-16T04:18:02;99510.34;;;8.13;100.00
19624;BME280;9959;49.798;9.928;2024-02-16T04:20:30;99516.41;;;7.87;100.00
19624;BME280;9959;49.798;9.928;2024-02-16T04:22:57;99513.53;;;7.95;100.00
19624;BME280;9959;49.798;9.928;2024-02-16T04:25:24;99517.66;;;7.91;100.00
19624;BME280;9959;49.798;9.928;2024-02-16T04:27:50;99511.13;;;7.72;100.00
19624;BME280;9959;49.798;9.928;2024-02-16T04:30:17;99509.09;;;7.74;100.00
19624;BME280;9959;49.798;9.928;2024-02-16T04:32:44;99511.78;;;7.74;100.00
19624;BME280;9959;49.798;9.928;2024-02-16T04:35:11;99515.97;;;7.84;100.00
19624;BME280;9959;49.798;9.928;2024-02-16T04:37:39;99518.41;;;7.78;100.00
19624;BME280;9959;49.798;9.928;2024-02-16T04:40:09;99516.78;;;7.84;100.00
19624;BME280;9959;49.798;9.928;2024-02-16T04:42:39;99522.84;;;7.93;100.00
19624;BME280;9959;49.798;9.928;2024-02-16T04:45:07;99529.03;;;8.00;100.00
19624;BME280;9959;49.798;9.928;2024-02-16T04:47:34;99520.69;;;8.16;100.00
19624;BME280;9959;49.798;9.928;2024-02-16T04:50:02;99520.16;;;7.93;100.00
19624;BME280;9959;49.798;9.928;2024-02-16T04:52:30;99525.91;;;7.90;100.00
19624;BME280;9959;49.798;9.928;2024-02-16T04:54:56;99518.44;;;7.85;100.00
19624;BME280;9959;49.798;9.928;2024-02-16T04:57:23;99520.88;;;7.80;100.00
19624;BME280;9959;49.798;9.928;2024-02-16T04:59:50;99519.66;;;7.82;100.00
19624;BME280;9959;49.798;9.928;2024-02-16T05:02:18;99523.03;;;7.98;100.00
19624;BME280;9959;49.798;9.928;2024-02-16T05:04:45;99514.56;;;7.88;100.00
19624;BME280;9959;49.798;9.928;2024-02-16T05:07:12;99524.56;;;8.07;100.00
19624;BME280;9959;49.798;9.928;2024-02-16T05:09:39;99523.44;;;7.95;100.00
19624;BME280;9959;49.798;9.928;2024-02-16T05:12:06;99526.13;;;7.95;100.00
19624;BME280;9959;49.798;9.928;2024-02-16T05:14:35;99511.53;;;8.04;100.00
19624;BME280;9959;49.798;9.928;2024-02-16T05:17:02;99520.22;;;8.06;100.00
19624;BME280;9959;49.798;9.928;2024-02-16T05:19:33;99514.44;;;8.09;100.00
19624;BME280;9959;49.798;9.928;2024-02-16T05:22:01;99510.66;;;7.97;100.00
19624;BME280;9959;49.798;9.928;2024-02-16T05:24:29;99509.88;;;8.03;100.00
19624;BME280;9959;49.798;9.928;2024-02-16T05:26:56;99504.53;;;8.09;100.00
19624;BME280;9959;49.798;9.928;2024-02-16T05:29:23;99508.69;;;8.12;100.00
19624;BME280;9959;49.798;9.928;2024-02-16T05:31:51;99508.34;;;8.28;100.00
19624;BME280;9959;49.798;9.928;2024-02-16T05:34:18;99508.34;;;8.28;100.00
19624;BME280;9959;49.798;9.928;2024-02-16T05:36:45;99505.41;;;8.23;100.00
19624;BME280;9959;49.798;9.928;2024-02-16T05:39:12;99510.75;;;8.10;100.00
19624;BME280;9959;49.798;9.928;2024-02-16T05:41:53;99509.94;;;8.16;100.00
19624;BME280;9959;49.798;9.928;2024-02-16T05:44:20;99511.53;;;8.04;100.00
19624;BME280;9959;49.798;9.928;2024-02-16T05:46:47;99503.28;;;8.05;100.00
19624;BME280;9959;49.798;9.928;2024-02-16T05:49:15;99504.97;;;8.13;100.00
19624;BME280;9959;49.798;9.928;2024-02-16T05:51:43;99500.28;;;8.28;100.00
19624;BME280;9959;49.798;9.928;2024-02-16T05:54:28;99510.00;;;8.29;100.00
19624;BME280;9959;49.798;9.928;2024-02-16T05:56:55;99521.28;;;8.11;100.00
19624;BME280;9959;49.798;9.928;2024-02-16T05:59:22;99518.94;;;8.02;100.00
19624;BME280;9959;49.798;9.928;2024-02-16T06:01:48;99520.94;;;7.87;100.00
19624;BME280;9959;49.798;9.928;2024-02-16T06:04:16;99512.31;;;7.98;100.00
19624;BME280;9959;49.798;9.928;2024-02-16T06:06:43;99522.19;;;7.91;100.00
19624;BME280;9959;49.798;9.928;2024-02-16T06:09:10;99516.84;;;7.91;100.00
19624;BME280;9959;49.798;9.928;2024-02-16T06:11:37;99523.47;;;8.01;100.00
19624;BME280;9959;49.798;9.928;2024-02-16T06:14:05;99518.91;;;7.95;100.00
19624;BME280;9959;49.798;9.928;2024-02-16T06:16:32;99521.78;;;7.94;100.00
19624;BME280;9959;49.798;9.928;2024-02-16T06:18:59;99517.72;;;8.04;100.00
19624;BME280;9959;49.798;9.928;2024-02-16T06:21:27;99522.25;;;8.04;100.00
19624;BME280;9959;49.798;9.928;2024-02-16T06:23:54;99527.81;;;8.02;100.00
19624;BME280;9959;49.798;9.928;2024-02-16T06:26:20;99542.06;;;8.03;100.00
19624;BME280;9959;49.798;9.928;2024-02-16T06:28:47;99544.94;;;8.01;100.00
19624;BME280;9959;49.798;9.928;2024-02-16T06:31:14;99550.31;;;8.01;100.00
19624;BME280;9959;49.798;9.928;2024-02-16T06:33:41;99552.34;;;7.93;100.00
19624;BME280;9959;49.798;9.928;2024-02-16T06:36:08;99558.22;;;8.09;100.00
19624;BME280;9959;49.798;9.928;2024-02-16T06:38:37;99553.78;;;7.95;100.00
19624;BME280;9959;49.798;9.928;2024-02-16T06:41:04;99557.59;;;7.79;100.00
19624;BME280;9959;49.798;9.928;2024-02-16T06:43:31;99557.22;;;7.82;100.00
19624;BME280;9959;49.798;9.928;2024-02-16T06:45:58;99570.47;;;7.91;100.00
19624;BME280;9959;49.798;9.928;2024-02-16T06:48:25;99567.22;;;8.02;100.00
19624;BME280;9959;49.798;9.928;2024-02-16T06:50:52;99571.81;;;8.08;100.00
19624;BME280;9959;49.798;9.928;2024-02-16T06:53:21;99565.44;;;8.09;100.00
19624;BME280;9959;49.798;9.928;2024-02-16T06:55:48;99561.13;;;8.14;100.00
19624;BME280;9959;49.798;9.928;2024-02-16T06:58:15;99562.41;;;8.25;100.00
19624;BME280;9959;49.798;9.928;2024-02-16T07:00:42;99559.09;;;8.23;100.00
19624;BME280;9959;49.798;9.928;2024-02-16T07:03:09;99565.19;;;8.38;100.00
19624;BME280;9959;49.798;9.928;2024-02-16T07:05:36;99567.88;;;8.38;100.00
19624;BME280;9959;49.798;9.928;2024-02-16T07:08:03;99569.53;;;8.39;100.00
19624;BME280;9959;49.798;9.928;2024-02-16T07:10:33;99567.75;;;8.60;100.00
19624;BME280;9959;49.798;9.928;2024-02-16T07:13:00;99572.97;;;8.68;100.00
19624;BME280;9959;49.798;9.928;2024-02-16T07:15:27;99576.69;;;8.67;100.00
19624;BME280;9959;49.798;9.928;2024-02-16T07:17:54;99583.94;;;8.73;100.00
19624;BME280;9959;49.798;9.928;2024-02-16T07:20:22;99579.78;;;8.77;100.00
19624;BME280;9959;49.798;9.928;2024-02-16T07:22:49;99587.03;;;8.83;100.00
19624;BME280;9959;49.798;9.928;2024-02-16T07:25:18;99584.41;;;8.96;100.00
19624;BME280;9959;49.798;9.928;2024-02-16T07:27:44;99585.03;;;8.98;100.00
19624;BME280;9959;49.798;9.928;2024-02-16T07:30:12;99584.63;;;9.01;100.00
19624;BME280;9959;49.798;9.928;2024-02-16T07:32:52;99591.28;;;9.19;100.00
19624;BME280;9959;49.798;9.928;2024-02-16T07:35:19;99585.50;;;9.22;100.00
19624;BME280;9959;49.798;9.928;2024-02-16T07:37:49;99595.00;;;9.18;100.00
19624;BME280;9959;49.798;9.928;2024-02-16T07:40:18;99602.22;;;9.10;100.00
19624;BME280;9959;49.798;9.928;2024-02-16T07:42:45;99601.78;;;9.00;100.00
19624;BME280;9959;49.798;9.928;2024-02-16T07:45:12;99600.75;;;9.01;100.00
19624;BME280;9959;49.798;9.928;2024-02-16T07:47:42;99605.38;;;9.54;100.00
19624;BME280;9959;49.798;9.928;2024-02-16T07:50:09;99600.81;;;9.67;100.00
19624;BME280;9959;49.798;9.928;2024-02-16T07:52:38;99603.72;;;9.72;100.00
19624;BME280;9959;49.798;9.928;2024-02-16T07:55:08;99598.75;;;9.69;100.00
19624;BME280;9959;49.798;9.928;2024-02-16T07:57:35;99598.31;;;9.85;99.81
19624;BME280;9959;49.798;9.928;2024-02-16T08:00:04;99594.00;;;9.78;99.47
19624;BME280;9959;49.798;9.928;2024-02-16T08:02:31;99601.63;;;10.01;99.38
19624;BME280;9959;49.798;9.928;2024-02-16T08:04:59;99597.50;;;9.92;99.71
19624;BME280;9959;49.798;9.928;2024-02-16T08:07:25;99603.50;;;10.07;97.69
19624;BME280;9959;49.798;9.928;2024-02-16T08:09:52;99600.38;;;10.30;95.77
19624;BME280;9959;49.798;9.928;2024-02-16T08:12:19;99608.88;;;10.33;94.90
19624;BME280;9959;49.798;9.928;2024-02-16T08:14:47;99608.44;;;10.30;95.68
19624;BME280;9959;49.798;9.928;2024-02-16T08:17:14;99616.53;;;10.30;94.77
19624;BME280;9959;49.798;9.928;2024-02-16T08:19:52;99616.94;;;10.13;96.38
19624;BME280;9959;49.798;9.928;2024-02-16T08:22:21;99613.41;;;10.39;95.94
19624;BME280;9959;49.798;9.928;2024-02-16T08:24:48;99611.47;;;10.60;93.74
19624;BME280;9959;49.798;9.928;2024-02-16T08:27:16;99615.41;;;10.57;92.39
19624;BME280;9959;49.798;9.928;2024-02-16T08:29:44;99617.94;;;10.97;91.40
19624;BME280;9959;49.798;9.928;2024-02-16T08:32:11;99616.25;;;11.02;91.06
19624;BME280;9959;49.798;9.928;2024-02-16T08:34:38;99620.41;;;10.98;89.71
19624;BME280;9959;49.798;9.928;2024-02-16T08:37:06;99612.03;;;10.75;89.67
19624;BME280;9959;49.798;9.928;2024-02-16T08:39:33;99608.78;;;11.04;89.35
19624;BME280;9959;49.798;9.928;2024-02-16T08:42:01;99612.38;;;11.23;87.73
19624;BME280;9959;49.798;9.928;2024-02-16T08:44:29;99619.03;;;10.82;90.07
19624;BME280;9959;49.798;9.928;2024-02-16T08:46:56;99617.03;;;11.09;88.34
19624;BME280;9959;49.798;9.928;2024-02-16T08:49:23;99621.22;;;11.68;84.58
19624;BME280;9959;49.798;9.928;2024-02-16T08:51:50;99611.66;;;11.41;85.72
19624;BME280;9959;49.798;9.928;2024-02-16T08:54:17;99617.13;;;11.59;84.02
19624;BME280;9959;49.798;9.928;2024-02-16T08:56:46;99616.34;;;11.52;84.21
19624;BME280;9959;49.798;9.928;2024-02-16T08:59:14;99613.03;;;11.50;85.11
19624;BME280;9959;49.798;9.928;2024-02-16T09:01:42;99619.22;;;11.57;84.37
19624;BME280;9959;49.798;9.928;2024-02-16T09:04:10;99617.25;;;11.71;85.02
19624;BME280;9959;49.798;9.928;2024-02-16T09:06:37;99617.38;;;11.82;83.69
19624;BME280;9959;49.798;9.928;2024-02-16T09:09:05;99623.25;;;11.73;83.58
19624;BME280;9959;49.798;9.928;2024-02-16T09:11:35;99623.66;;;11.76;83.85
19624;BME280;9959;49.798;9.928;2024-02-16T09:14:02;99626.06;;;11.60;84.38
19624;BME280;9959;49.798;9.928;2024-02-16T09:16:30;99613.94;;;11.44;85.09
19624;BME280;9959;49.798;9.928;2024-02-16T09:18:58;99611.34;;;11.56;85.28
19624;BME280;9959;49.798;9.928;2024-02-16T09:21:26;99607.47;;;11.76;84.37
19624;BME280;9959;49.798;9.928;2024-02-16T09:23:55;99609.47;;;11.88;83.61
19624;BME280;9959;49.798;9.928;2024-02-16T09:26:25;99611.22;;;11.75;84.35
19624;BME280;9959;49.798;9.928;2024-02-16T09:28:57;99611.25;;;12.18;82.42
19624;BME280;9959;49.798;9.928;2024-02-16T09:31:24;99618.69;;;12.23;81.58
19624;BME280;9959;49.798;9.928;2024-02-16T09:33:51;99619.91;;;12.27;81.94
19624;BME280;9959;49.798;9.928;2024-02-16T09:36:20;99616.59;;;12.25;81.84
19624;BME280;9959;49.798;9.928;2024-02-16T09:38:47;99624.25;;;12.46;80.02
19624;BME280;9959;49.798;9.928;2024-02-16T09:41:14;99627.09;;;12.88;78.13
19624;BME280;9959;49.798;9.928;2024-02-16T09:43:44;99625.97;;;12.41;80.49
19624;BME280;9959;49.798;9.928;2024-02-16T09:46:11;99625.22;;;12.70;78.58
19624;BME280;9959;49.798;9.928;2024-02-16T09:48:39;99634.66;;;13.16;76.33
19624;BME280;9959;49.798;9.928;2024-02-16T09:51:08;99623.00;;;13.15;76.06
19624;BME280;9959;49.798;9.928;2024-02-16T09:53:35;99624.91;;;13.57;74.73
19624;BME280;9959;49.798;9.928;2024-02-16T09:56:05;99625.94;;;13.44;74.80
19624;BME280;9959;49.798;9.928;2024-02-16T09:58:32;99626.56;;;13.58;74.88
19624;BME280;9959;49.798;9.928;2024-02-16T10:00:58;99624.25;;;13.73;74.05
19624;BME280;9959;49.798;9.928;2024-02-16T10:03:30;99620.41;;;13.92;73.61
19624;BME280;9959;49.798;9.928;2024-02-16T10:06:07;99622.84;;;13.82;73.64
19624;BME280;9959;49.798;9.928;2024-02-16T10:08:52;99623.03;;;13.57;74.27
19624;BME280;9959;49.798;9.928;2024-02-16T10:11:24;99627.22;;;13.95;73.27
19624;BME280;9959;49.798;9.928;2024-02-16T10:13:58;99627.34;;;14.00;73.42
19624;BME280;9959;49.798;9.928;2024-02-16T10:16:26;99638.53;;;13.92;73.36
19624;BME280;9959;49.798;9.928;2024-02-16T10:19:03;99633.13;;;13.92;74.06
19624;BME280;9959;49.798;9.928;2024-02-16T10:21:31;99629.81;;;13.89;73.61
19624;BME280;9959;49.798;9.928;2024-02-16T10:26:29;99629.00;;;14.12;72.46
19624;BME280;9959;49.798;9.928;2024-02-16T10:28:57;99629.56;;;14.26;71.28
19624;BME280;9959;49.798;9.928;2024-02-16T10:31:25;99637.53;;;13.74;74.06
19624;BME280;9959;49.798;9.928;2024-02-16T10:34:00;99626.06;;;14.14;73.04
19624;BME280;9959;49.798;9.928;2024-02-16T10:36:31;99632.31;;;14.49;71.49
19624;BME280;9959;49.798;9.928;2024-02-16T10:38:59;99635.41;;;14.93;70.28
19624;BME280;9959;49.798;9.928;2024-02-16T10:41:27;99633.75;;;16.11;65.54
19624;BME280;9959;49.798;9.928;2024-02-16T10:43:56;99628.41;;;15.99;65.30
19624;BME280;9959;49.798;9.928;2024-02-16T10:46:23;99643.06;;;15.81;65.91
19624;BME280;9959;49.798;9.928;2024-02-16T10:48:51;99632.19;;;15.81;66.20
19624;BME280;9959;49.798;9.928;2024-02-16T10:51:28;99637.69;;;16.20;65.01
19624;BME280;9959;49.798;9.928;2024-02-16T10:54:00;99629.72;;;17.39;61.64
19624;BME280;9959;49.798;9.928;2024-02-16T10:56:32;99624.66;;;17.48;61.28
19624;BME280;9959;49.798;9.928;2024-02-16T10:59:07;99621.19;;;16.82;62.38
19624;BME280;9959;49.798;9.928;2024-02-16T11:01:38;99621.16;;;16.43;63.25
19624;BME280;9959;49.798;9.928;2024-02-16T11:04:07;99634.44;;;15.84;64.43
19624;BME280;9959;49.798;9.928;2024-02-16T11:06:54;99626.94;;;16.47;63.59
19624;BME280;9959;49.798;9.928;2024-02-16T11:09:27;99626.25;;;16.56;63.21
19624;BME280;9959;49.798;9.928;2024-02-16T11:11:58;99622.13;;;16.32;62.82
19624;BME280;9959;49.798;9.928;2024-02-16T11:14:41;99620.31;;;16.21;62.88
19624;BME280;9959;49.798;9.928;2024-02-16T11:17:13;99619.50;;;16.04;64.07
19624;BME280;9959;49.798;9.928;2024-02-16T11:19:45;99622.63;;;15.96;63.88
19624;BME280;9959;49.798;9.928;2024-02-16T11:22:19;99622.31;;;16.47;61.59
19624;BME280;9959;49.798;9.928;2024-02-16T11:24:53;99619.28;;;17.58;58.75
19624;BME280;9959;49.798;9.928;2024-02-16T11:27:26;99617.94;;;17.60;59.51
19624;BME280;9959;49.798;9.928;2024-02-16T11:29:53;99614.25;;;17.18;59.18
19624;BME280;9959;49.798;9.928;2024-02-16T11:32:22;99624.63;;;18.02;56.32
19624;BME280;9959;49.798;9.928;2024-02-16T11:34:49;99614.38;;;19.34;52.55
19624;BME280;9959;49.798;9.928;2024-02-16T11:37:16;99611.06;;;19.21;52.92
19624;BME280;9959;49.798;9.928;2024-02-16T11:39:43;99606.53;;;22.49;43.99
19624;BME280;9959;49.798;9.928;2024-02-16T11:42:18;99596.22;;;21.78;45.01
19624;BME280;9959;49.798;9.928;2024-02-16T11:44:54;99592.19;;;21.32;44.93
19624;BME280;9959;49.798;9.928;2024-02-16T11:47:24;99587.66;;;21.51;44.43
19624;BME280;9959;49.798;9.928;2024-02-16T11:50:03;99590.28;;;20.68;47.22
19624;BME280;9959;49.798;9.928;2024-02-16T11:52:30;99595.56;;;20.13;47.58
19624;BME280;9959;49.798;9.928;2024-02-16T11:54:58;99596.25;;;21.73;45.03
19624;BME280;9959;49.798;9.928;2024-02-16T11:57:28;99598.78;;;22.04;42.91
19624;BME280;9959;49.798;9.928;2024-02-16T11:59:55;99596.16;;;21.00;46.48
19624;BME280;9959;49.798;9.928;2024-02-16T12:02:24;99601.97;;;23.30;41.83
19624;BME280;9959;49.798;9.928;2024-02-16T12:04:58;99602.97;;;21.91;44.03
19624;BME280;9959;49.798;9.928;2024-02-16T12:07:30;99593.97;;;21.85;44.85
19624;BME280;9959;49.798;9.928;2024-02-16T12:10:02;99593.72;;;23.11;42.01
19624;BME280;9959;49.798;9.928;2024-02-16T12:12:33;99589.53;;;22.47;43.68
19624;BME280;9959;49.798;9.928;2024-02-16T12:15:00;99592.56;;;21.54;45.09
19624;BME280;9959;49.798;9.928;2024-02-16T12:17:27;99592.22;;;20.52;47.85
19624;BME280;9959;49.798;9.928;2024-02-16T12:19:54;99590.34;;;20.27;48.10
19624;BME280;9959;49.798;9.928;2024-02-16T12:22:21;99589.31;;;19.62;49.95
19624;BME280;9959;49.798;9.928;2024-02-16T12:24:50;99591.41;;;19.30;49.77
19624;BME280;9959;49.798;9.928;2024-02-16T12:27:18;99601.16;;;19.00;51.51
19624;BME280;9959;49.798;9.928;2024-02-16T12:29:45;99600.53;;;18.78;51.29
19624;BME280;9959;49.798;9.928;2024-02-16T12:32:13;99601.78;;;18.55;52.78
19624;BME280;9959;49.798;9.928;2024-02-16T12:34:45;99607.50;;;18.53;52.98
19624;BME280;9959;49.798;9.928;2024-02-16T12:37:13;99605.75;;;18.37;53.22
19624;BME280;9959;49.798;9.928;2024-02-16T12:39:39;99602.81;;;18.49;52.81
19624;BME280;9959;49.798;9.928;2024-02-16T12:42:06;99599.72;;;18.30;53.22
19624;BME280;9959;49.798;9.928;2024-02-16T12:44:34;99601.97;;;18.01;54.30
19624;BME280;9959;49.798;9.928;2024-02-16T12:47:01;99593.63;;;17.81;55.04
19624;BME280;9959;49.798;9.928;2024-02-16T12:49:27;99593.38;;;17.82;55.34
19624;BME280;9959;49.798;9.928;2024-02-16T12:51:54;99596.97;;;17.61;55.38
19624;BME280;9959;49.798;9.928;2024-02-16T12:54:21;99600.47;;;17.83;55.45
19624;BME280;9959;49.798;9.928;2024-02-16T12:56:49;99598.81;;;17.82;55.52
19624;BME280;9959;49.798;9.928;2024-02-16T12:59:16;99602.03;;;17.74;55.85
19624;BME280;9959;49.798;9.928;2024-02-16T13:01:43;99603.13;;;17.73;56.34
19624;BME280;9959;49.798;9.928;2024-02-16T13:04:11;99605.44;;;17.91;55.55
19624;BME280;9959;49.798;9.928;2024-02-16T13:06:40;99598.50;;;18.11;55.26
19624;BME280;9959;49.798;9.928;2024-02-16T13:09:07;99603.75;;;17.85;56.22
19624;BME280;9959;49.798;9.928;2024-02-16T13:11:35;99603.78;;;17.90;56.14
19624;BME280;9959;49.798;9.928;2024-02-16T13:14:02;99595.78;;;17.47;57.20
19624;BME280;9959;49.798;9.928;2024-02-16T13:16:28;99603.06;;;17.41;57.27
19624;BME280;9959;49.798;9.928;2024-02-16T13:18:55;99598.38;;;17.10;57.86